Time;durP1;ratioP1;P1;durP2;ratioP2;P2;SDS_P1;SDS_P2;PMS_P1;PMS_P2;Temp;Humidity;BMP_temperature;BMP_pressure;BME280_temperature;BME280_humidity;BME280_pressure;Samples;Min_cycle;Max_cycle;Signal;HPM_P1;HPM_P2
2022/07/07 00:01:57;;;;;;;2.63;0.60;;;18.60;99.90;;;;;;5048761;28;20053;-57
2022/07/07 00:04:23;;;;;;;1.42;0.77;;;18.50;99.90;;;;;;5048082;28;20136;-55
2022/07/07 00:06:50;;;;;;;3.72;0.85;;;18.50;99.90;;;;;;5048256;28;20076;-57
2022/07/07 00:09:17;;;;;;;2.00;1.00;;;18.60;99.90;;;;;;5047859;28;20641;-57
2022/07/07 00:11:44;;;;;;;2.67;0.68;;;18.60;99.90;;;;;;5048061;28;20136;-58
2022/07/07 00:14:10;;;;;;;1.35;0.60;;;18.60;99.90;;;;;;5048191;28;20127;-56
2022/07/07 00:16:37;;;;;;;1.63;0.60;;;18.50;99.90;;;;;;5053724;28;20502;-55
2022/07/07 00:19:04;;;;;;;3.30;0.80;;;18.40;99.90;;;;;;5057360;28;20102;-53
2022/07/07 00:21:31;;;;;;;2.28;0.70;;;18.40;99.90;;;;;;5048195;28;20127;-54
2022/07/07 00:23:58;;;;;;;1.83;0.90;;;18.30;99.90;;;;;;5047342;28;20044;-57
2022/07/07 00:26:25;;;;;;;2.58;0.50;;;18.30;99.90;;;;;;5048293;28;20052;-57
2022/07/07 00:28:51;;;;;;;1.00;0.63;;;18.40;99.90;;;;;;5047900;28;20083;-56
2022/07/07 00:31:18;;;;;;;1.65;0.60;;;18.40;99.90;;;;;;5054454;28;20598;-58
2022/07/07 00:33:45;;;;;;;0.63;0.57;;;18.30;99.90;;;;;;5051009;28;20455;-55
2022/07/07 00:36:12;;;;;;;1.10;0.63;;;18.40;99.90;;;;;;5047809;28;20569;-58
2022/07/07 00:38:39;;;;;;;0.98;0.55;;;18.40;99.90;;;;;;5047406;28;20135;-57
2022/07/07 00:41:06;;;;;;;2.22;0.80;;;18.40;99.90;;;;;;5047547;28;20559;-57
2022/07/07 00:43:40;;;;;;;3.38;0.63;;;18.40;99.90;;;;;;5063008;28;20480;-57
2022/07/07 00:46:07;;;;;;;1.65;0.75;;;18.40;99.90;;;;;;5048171;28;20466;-55
2022/07/07 00:48:35;;;;;;;1.90;0.95;;;18.40;99.90;;;;;;5047712;28;20492;-56
2022/07/07 00:51:06;;;;;;;1.23;0.70;;;18.40;99.90;;;;;;5046303;28;20049;-57
2022/07/07 00:53:33;;;;;;;1.65;0.70;;;18.40;99.90;;;;;;5039452;28;20128;-57
2022/07/07 00:56:00;;;;;;;1.73;1.00;;;18.40;99.90;;;;;;5047600;28;20136;-57
2022/07/07 00:58:27;;;;;;;1.52;0.70;;;18.40;99.90;;;;;;5046333;28;20079;-56
2022/07/07 01:00:53;;;;;;;1.48;0.77;;;18.40;99.90;;;;;;5047482;28;20094;-56
2022/07/07 01:03:20;;;;;;;1.60;0.80;;;18.40;99.90;;;;;;5047732;28;20176;-56
2022/07/07 01:05:48;;;;;;;3.88;0.80;;;18.40;99.90;;;;;;5047348;28;20099;-54
2022/07/07 01:08:15;;;;;;;1.05;0.70;;;18.40;99.90;;;;;;4695136;28;10000238;-54
2022/07/07 01:10:43;;;;;;;1.42;0.82;;;18.40;99.90;;;;;;5045179;28;20129;-57
2022/07/07 01:13:09;;;;;;;1.45;0.70;;;18.40;99.90;;;;;;5047189;28;20504;-51
2022/07/07 01:15:36;;;;;;;1.00;0.60;;;18.40;99.90;;;;;;5047228;28;20041;-56
2022/07/07 01:18:03;;;;;;;1.35;0.80;;;18.50;99.90;;;;;;5047388;28;20120;-55
2022/07/07 01:20:30;;;;;;;4.70;0.60;;;18.50;99.90;;;;;;5046624;28;20037;-55
2022/07/07 01:22:57;;;;;;;1.48;0.60;;;18.50;99.90;;;;;;5047657;28;20132;-53
2022/07/07 01:25:24;;;;;;;1.55;0.52;;;18.40;99.90;;;;;;5047081;28;20135;-53
2022/07/07 01:27:50;;;;;;;2.45;0.80;;;18.40;99.90;;;;;;5047567;28;20179;-54
2022/07/07 01:30:18;;;;;;;3.85;0.73;;;18.40;99.90;;;;;;5047404;28;20220;-53
2022/07/07 01:32:46;;;;;;;2.58;1.08;;;18.40;99.90;;;;;;5047110;28;20053;-57
2022/07/07 01:35:13;;;;;;;2.40;0.90;;;18.30;99.90;;;;;;5047376;28;20045;-56
2022/07/07 01:37:39;;;;;;;0.93;0.60;;;18.30;99.90;;;;;;5047277;28;20091;-56
2022/07/07 01:40:06;;;;;;;2.63;0.52;;;18.20;99.90;;;;;;5046942;28;20041;-59
2022/07/07 01:42:33;;;;;;;1.65;0.80;;;18.20;99.90;;;;;;5047023;28;20124;-55
2022/07/07 01:45:00;;;;;;;2.40;1.05;;;18.20;99.90;;;;;;5046984;28;20085;-57
2022/07/07 01:47:27;;;;;;;3.20;0.50;;;18.20;99.90;;;;;;5047580;28;20120;-55
2022/07/07 01:49:53;;;;;;;1.58;0.77;;;18.20;99.90;;;;;;5049161;28;20072;-56
2022/07/07 01:52:20;;;;;;;2.60;1.25;;;18.10;99.90;;;;;;5050815;28;20123;-56
2022/07/07 01:54:47;;;;;;;2.38;0.80;;;18.10;99.90;;;;;;5050919;28;20091;-57
2022/07/07 01:57:14;;;;;;;3.55;1.33;;;18.10;99.90;;;;;;5050645;28;20582;-54
2022/07/07 01:59:41;;;;;;;1.48;0.65;;;18.00;99.90;;;;;;5050768;28;20063;-57
2022/07/07 02:02:07;;;;;;;1.77;0.75;;;17.90;99.90;;;;;;5050583;28;20053;-57
2022/07/07 02:04:34;;;;;;;1.00;0.68;;;17.90;99.90;;;;;;5050451;28;20048;-55
2022/07/07 02:07:01;;;;;;;4.07;0.80;;;17.90;99.90;;;;;;5049442;28;20052;-55
2022/07/07 02:09:28;;;;;;;1.65;0.75;;;17.90;99.90;;;;;;5050685;28;20372;-57
2022/07/07 02:11:55;;;;;;;1.30;0.60;;;17.80;99.90;;;;;;5050250;28;20051;-56
2022/07/07 02:14:21;;;;;;;2.40;0.73;;;17.80;99.90;;;;;;5050334;28;20498;-58
2022/07/07 02:16:48;;;;;;;2.20;0.77;;;17.90;99.90;;;;;;5050724;28;20045;-55
2022/07/07 02:19:15;;;;;;;2.03;0.70;;;17.90;99.90;;;;;;5060709;28;20148;-56
2022/07/07 02:21:42;;;;;;;3.13;1.40;;;18.00;99.90;;;;;;5050655;28;20456;-55
2022/07/07 02:24:09;;;;;;;1.45;0.75;;;18.00;99.90;;;;;;5049916;28;20099;-55
2022/07/07 02:26:35;;;;;;;2.13;0.82;;;18.00;99.90;;;;;;5050354;28;20212;-57
2022/07/07 02:29:03;;;;;;;1.92;0.88;;;18.00;99.90;;;;;;5050124;28;20087;-55
2022/07/07 02:31:30;;;;;;;1.73;0.95;;;18.00;99.90;;;;;;5050166;28;20073;-56
2022/07/07 02:33:59;;;;;;;3.13;1.05;;;18.10;99.90;;;;;;5049976;28;20048;-54
2022/07/07 02:36:26;;;;;;;3.47;1.02;;;18.10;99.90;;;;;;5050021;28;20048;-56
2022/07/07 02:38:53;;;;;;;3.40;0.82;;;18.10;99.90;;;;;;5050249;28;20488;-56
2022/07/07 02:41:20;;;;;;;1.45;0.90;;;18.10;99.90;;;;;;5050091;28;20055;-55
2022/07/07 02:43:46;;;;;;;3.28;0.80;;;18.10;99.90;;;;;;5049906;28;20100;-55
2022/07/07 02:46:13;;;;;;;2.50;0.80;;;18.10;99.90;;;;;;5048929;28;20135;-57
2022/07/07 02:48:40;;;;;;;4.20;1.10;;;18.10;99.90;;;;;;5049994;28;20045;-53
2022/07/07 02:51:08;;;;;;;8.02;0.85;;;18.20;99.90;;;;;;5049859;28;20094;-57
2022/07/07 02:53:36;;;;;;;2.85;0.80;;;18.20;99.90;;;;;;5048283;28;20049;-56
2022/07/07 02:56:03;;;;;;;3.83;1.40;;;18.20;99.90;;;;;;5049823;28;20092;-57
2022/07/07 02:58:30;;;;;;;3.38;1.08;;;18.10;99.90;;;;;;5049560;28;20115;-54
2022/07/07 03:00:57;;;;;;;3.17;0.90;;;18.10;99.90;;;;;;5049252;28;20049;-56
2022/07/07 03:03:23;;;;;;;1.73;0.90;;;18.20;99.90;;;;;;5049454;28;20515;-57
2022/07/07 03:05:51;;;;;;;4.15;1.00;;;18.20;99.90;;;;;;5049466;28;20055;-56
2022/07/07 03:08:17;;;;;;;3.35;1.15;;;18.20;99.90;;;;;;5049208;28;20128;-56
2022/07/07 03:10:44;;;;;;;2.65;0.80;;;18.20;99.90;;;;;;5053535;28;20049;-57
2022/07/07 03:13:11;;;;;;;5.18;1.02;;;18.20;99.90;;;;;;5057391;28;20045;-55
2022/07/07 03:15:38;;;;;;;2.17;1.00;;;18.10;99.90;;;;;;5049512;28;20114;-57
2022/07/07 03:18:05;;;;;;;2.10;0.95;;;18.10;99.90;;;;;;5049169;28;20084;-57
2022/07/07 03:20:32;;;;;;;2.00;0.80;;;18.10;99.90;;;;;;5049323;28;20057;-55
2022/07/07 03:22:59;;;;;;;3.65;1.48;;;18.20;99.90;;;;;;5047631;28;20048;-54
2022/07/07 03:25:25;;;;;;;2.58;0.90;;;18.20;99.90;;;;;;5048892;28;20075;-55
2022/07/07 03:27:52;;;;;;;3.67;1.17;;;18.20;99.90;;;;;;5049134;28;20044;-55
2022/07/07 03:30:19;;;;;;;1.90;1.05;;;18.20;99.90;;;;;;5049182;28;20055;-56
2022/07/07 03:32:46;;;;;;;2.20;0.85;;;18.20;99.90;;;;;;5047719;28;20059;-55
2022/07/07 03:35:13;;;;;;;2.10;0.75;;;18.30;99.90;;;;;;5048882;28;20410;-57
2022/07/07 03:37:40;;;;;;;3.30;0.77;;;18.30;99.90;;;;;;5048961;28;20052;-56
2022/07/07 03:40:07;;;;;;;5.25;1.10;;;18.30;99.90;;;;;;5047913;28;20053;-56
2022/07/07 03:42:35;;;;;;;2.65;1.10;;;18.30;99.90;;;;;;5049182;28;20049;-55
2022/07/07 03:45:03;;;;;;;2.25;0.95;;;18.30;99.90;;;;;;5048710;28;20261;-57
2022/07/07 03:47:29;;;;;;;2.92;0.95;;;18.40;99.90;;;;;;5048887;28;20240;-55
2022/07/07 03:49:56;;;;;;;3.15;1.00;;;18.40;99.90;;;;;;5048861;28;20079;-56
2022/07/07 03:52:23;;;;;;;4.38;1.23;;;18.40;99.90;;;;;;5048251;28;20049;-53
2022/07/07 03:54:50;;;;;;;3.80;0.88;;;18.40;99.90;;;;;;5048410;28;20049;-54
2022/07/07 03:57:17;;;;;;;6.30;0.85;;;18.50;99.90;;;;;;5048516;28;20812;-57
2022/07/07 03:59:44;;;;;;;6.85;1.00;;;18.50;99.90;;;;;;5048469;28;20047;-54
2022/07/07 04:02:10;;;;;;;1.95;0.90;;;18.50;99.90;;;;;;5048387;28;20503;-55
2022/07/07 04:04:37;;;;;;;4.15;0.82;;;18.50;99.90;;;;;;5045506;28;20409;-56
2022/07/07 04:07:04;;;;;;;6.70;1.75;;;18.50;99.90;;;;;;5048459;28;20107;-55
2022/07/07 04:09:31;;;;;;;3.33;0.73;;;18.50;99.90;;;;;;5048302;28;20040;-58
2022/07/07 04:11:58;;;;;;;3.92;1.08;;;18.50;99.90;;;;;;5051517;28;20040;-55
2022/07/07 04:14:25;;;;;;;2.08;0.77;;;18.50;99.90;;;;;;5048382;28;20336;-55
2022/07/07 04:16:52;;;;;;;3.75;0.90;;;18.50;99.90;;;;;;5048071;28;20060;-55
2022/07/07 04:19:18;;;;;;;2.30;0.93;;;18.50;99.90;;;;;;5047978;28;20060;-56
2022/07/07 04:21:45;;;;;;;3.65;1.10;;;18.50;99.90;;;;;;5048325;28;20120;-55
2022/07/07 04:24:13;;;;;;;2.05;0.95;;;18.40;99.90;;;;;;5048356;28;20106;-54
2022/07/07 04:26:39;;;;;;;1.88;0.90;;;18.50;99.90;;;;;;5046869;28;20084;-56
2022/07/07 04:29:06;;;;;;;4.75;1.00;;;18.50;99.90;;;;;;5048045;28;20592;-56
2022/07/07 04:31:33;;;;;;;4.90;1.10;;;18.50;99.90;;;;;;5048003;28;20053;-56
2022/07/07 04:34:00;;;;;;;1.08;0.77;;;18.50;99.90;;;;;;5048026;28;20051;-56
2022/07/07 04:36:27;;;;;;;4.07;0.70;;;18.60;99.90;;;;;;5048107;28;20200;-55
2022/07/07 04:38:54;;;;;;;3.88;1.35;;;18.50;99.90;;;;;;5047767;28;20053;-52
2022/07/07 04:41:21;;;;;;;1.75;0.70;;;18.50;99.90;;;;;;5047835;28;20055;-54
2022/07/07 04:43:47;;;;;;;5.38;0.90;;;18.40;99.90;;;;;;5047972;28;20044;-54
2022/07/07 04:46:14;;;;;;;4.47;1.05;;;18.40;99.90;;;;;;5046326;28;20052;-54
2022/07/07 04:48:41;;;;;;;2.67;0.80;;;18.50;99.90;;;;;;5047731;28;20136;-56
2022/07/07 04:51:08;;;;;;;3.42;0.82;;;18.50;99.90;;;;;;5047746;28;20075;-55
2022/07/07 04:53:35;;;;;;;3.22;0.90;;;18.50;99.90;;;;;;5047554;28;20481;-56
2022/07/07 04:56:02;;;;;;;3.95;0.70;;;18.60;99.90;;;;;;5047418;28;20573;-57
2022/07/07 04:58:28;;;;;;;7.25;1.05;;;18.50;99.90;;;;;;5047465;28;20099;-57
2022/07/07 05:00:55;;;;;;;2.03;1.20;;;18.60;99.90;;;;;;5047429;28;20060;-54
2022/07/07 05:03:26;;;;;;;2.47;0.90;;;18.50;99.90;;;;;;5047600;28;20496;-57
2022/07/07 05:05:54;;;;;;;1.88;1.00;;;18.50;99.90;;;;;;5046153;28;20076;-56
2022/07/07 05:08:21;;;;;;;5.28;1.05;;;18.50;99.90;;;;;;5047551;28;20080;-54
2022/07/07 05:10:48;;;;;;;1.42;0.80;;;18.50;99.90;;;;;;5047362;28;20469;-56
2022/07/07 05:13:14;;;;;;;1.40;0.90;;;18.50;99.90;;;;;;5047334;28;20076;-53
2022/07/07 05:15:41;;;;;;;2.40;0.85;;;18.50;99.90;;;;;;5047499;28;20370;-56
2022/07/07 05:18:09;;;;;;;1.55;0.90;;;18.50;99.90;;;;;;5047319;28;20412;-57
2022/07/07 05:20:36;;;;;;;3.35;0.90;;;18.50;99.90;;;;;;5047626;28;20106;-54
2022/07/07 05:23:02;;;;;;;3.28;1.20;;;18.50;99.90;;;;;;5044321;28;20511;-56
2022/07/07 05:25:29;;;;;;;1.30;1.08;;;18.50;99.90;;;;;;5050849;28;20328;-56
2022/07/07 05:27:56;;;;;;;3.83;0.82;;;18.50;99.90;;;;;;5051204;28;20079;-57
2022/07/07 05:30:23;;;;;;;1.27;1.10;;;18.50;99.90;;;;;;5051648;28;20068;-57
2022/07/07 05:32:50;;;;;;;3.35;1.20;;;18.40;99.90;;;;;;5051312;28;20474;-57
2022/07/07 05:35:17;;;;;;;4.05;1.30;;;18.50;99.90;;;;;;5051017;28;20053;-57
2022/07/07 05:37:44;;;;;;;6.07;0.93;;;18.50;99.90;;;;;;5051010;28;20084;-57
2022/07/07 05:40:11;;;;;;;2.55;1.20;;;18.40;99.90;;;;;;5049697;28;20526;-58
2022/07/07 05:42:38;;;;;;;9.23;1.90;;;18.40;99.90;;;;;;5051032;28;20475;-57
2022/07/07 05:45:05;;;;;;;2.40;1.00;;;18.40;99.90;;;;;;5051154;28;20074;-57
2022/07/07 05:47:32;;;;;;;2.22;1.27;;;18.40;99.90;;;;;;5051071;28;20065;-57
2022/07/07 05:49:59;;;;;;;2.45;1.02;;;18.30;99.90;;;;;;5050782;28;20492;-63
2022/07/07 05:52:26;;;;;;;2.75;0.98;;;18.30;99.90;;;;;;5050910;28;20048;-57
2022/07/07 05:54:53;;;;;;;6.15;1.92;;;18.20;99.90;;;;;;5050957;28;20075;-56
2022/07/07 05:57:19;;;;;;;3.35;1.70;;;18.20;99.90;;;;;;5050755;28;20049;-56
2022/07/07 05:59:46;;;;;;;3.67;1.27;;;18.20;99.90;;;;;;5050854;28;20072;-57
2022/07/07 06:02:13;;;;;;;3.20;1.60;;;18.20;99.90;;;;;;5050600;28;20048;-57
2022/07/07 06:04:41;;;;;;;3.03;1.10;;;18.20;99.90;;;;;;5050512;28;20044;-52
2022/07/07 06:07:08;;;;;;;2.47;1.13;;;18.20;99.90;;;;;;5050717;28;20045;-57
2022/07/07 06:09:35;;;;;;;3.83;1.15;;;18.20;99.90;;;;;;5050199;28;20484;-56
2022/07/07 06:12:02;;;;;;;5.90;1.63;;;18.20;99.90;;;;;;5061767;28;20102;-57
2022/07/07 06:14:28;;;;;;;3.63;1.40;;;18.20;99.90;;;;;;5056623;28;20045;-57
2022/07/07 06:16:55;;;;;;;2.65;1.15;;;18.20;99.90;;;;;;5050293;28;20132;-57
2022/07/07 06:19:22;;;;;;;4.57;2.25;;;18.30;99.90;;;;;;5050449;28;20052;-57
2022/07/07 06:21:49;;;;;;;4.20;1.63;;;18.30;99.90;;;;;;5052700;28;20048;-58
2022/07/07 06:24:16;;;;;;;2.92;1.08;;;18.30;99.90;;;;;;5042044;28;20052;-57
2022/07/07 06:26:42;;;;;;;3.65;1.20;;;18.40;99.90;;;;;;5057799;28;20136;-57
2022/07/07 06:29:09;;;;;;;3.25;1.50;;;18.40;99.90;;;;;;5053248;28;20466;-56
2022/07/07 06:31:36;;;;;;;7.45;1.30;;;18.50;99.90;;;;;;5057894;28;20547;-57
2022/07/07 06:34:03;;;;;;;4.18;1.20;;;18.50;99.90;;;;;;5050631;28;20053;-57
2022/07/07 06:36:30;;;;;;;9.32;2.28;;;18.50;99.90;;;;;;5058286;28;20491;-56
2022/07/07 06:38:57;;;;;;;4.43;1.13;;;18.50;99.90;;;;;;5053074;28;20064;-58
2022/07/07 06:41:23;;;;;;;3.15;1.00;;;18.50;99.90;;;;;;5048838;28;20160;-56
2022/07/07 06:43:50;;;;;;;4.57;1.20;;;18.50;99.90;;;;;;5038928;28;20045;-56
2022/07/07 06:46:17;;;;;;;3.55;1.42;;;18.50;99.90;;;;;;5049820;28;20084;-58
2022/07/07 06:48:44;;;;;;;1.92;1.08;;;18.60;99.90;;;;;;5049735;28;20041;-57
2022/07/07 06:51:11;;;;;;;9.43;2.03;;;18.60;99.90;;;;;;5049199;28;20056;-58
2022/07/07 06:53:38;;;;;;;7.43;1.23;;;18.60;99.90;;;;;;5048665;28;20048;-59
2022/07/07 06:56:05;;;;;;;6.28;1.38;;;18.60;99.90;;;;;;5049365;28;20045;-58
2022/07/07 06:58:31;;;;;;;3.78;1.13;;;18.50;99.90;;;;;;5049024;28;20415;-59
2022/07/07 07:00:58;;;;;;;2.75;1.67;;;18.50;99.90;;;;;;5048747;28;20064;-59
2022/07/07 07:03:25;;;;;;;5.50;1.45;;;18.50;99.90;;;;;;5048914;28;20404;-59
2022/07/07 07:05:53;;;;;;;11.75;3.03;;;18.50;99.90;;;;;;5040075;28;20073;-60
2022/07/07 07:08:24;;;;;;;2.65;1.10;;;18.60;99.90;;;;;;5048480;28;20048;-62
2022/07/07 07:10:51;;;;;;;4.38;1.55;;;18.60;99.90;;;;;;5050931;28;20049;-57
2022/07/07 07:13:18;;;;;;;2.95;1.40;;;18.60;99.90;;;;;;5056292;28;20080;-59
2022/07/07 07:15:45;;;;;;;4.60;1.50;;;18.50;99.90;;;;;;5048835;28;20087;-57
2022/07/07 07:18:12;;;;;;;2.22;1.17;;;18.50;99.90;;;;;;5048721;28;20045;-59
2022/07/07 07:20:40;;;;;;;7.18;1.70;;;18.40;99.90;;;;;;5048672;28;20045;-57
2022/07/07 07:23:07;;;;;;;2.53;1.23;;;18.40;99.90;;;;;;5048249;28;20053;-59
2022/07/07 07:25:34;;;;;;;8.48;2.35;;;18.40;99.90;;;;;;5048472;28;22370;-58
2022/07/07 07:28:00;;;;;;;3.55;1.63;;;18.50;99.90;;;;;;5048312;28;20077;-58
2022/07/07 07:30:27;;;;;;;4.68;1.20;;;18.40;99.90;;;;;;5048811;28;20040;-59
2022/07/07 07:32:54;;;;;;;4.57;1.38;;;18.40;99.90;;;;;;5048209;28;20045;-59
2022/07/07 07:35:21;;;;;;;4.13;1.23;;;18.40;99.90;;;;;;5046803;28;20049;-57
2022/07/07 07:37:48;;;;;;;5.50;1.10;;;18.40;99.90;;;;;;5047937;28;20507;-58
2022/07/07 07:40:14;;;;;;;4.13;2.83;;;18.50;99.90;;;;;;5048112;28;20140;-58
2022/07/07 07:42:41;;;;;;;3.35;1.90;;;18.60;99.90;;;;;;5045742;28;20520;-57
2022/07/07 07:45:11;;;;;;;2.72;1.10;;;18.60;99.90;;;;;;5046633;28;20040;-58
2022/07/07 07:47:43;;;;;;;5.10;1.33;;;18.60;99.90;;;;;;5063235;28;20143;-58
2022/07/07 07:50:12;;;;;;;3.03;0.93;;;18.70;99.90;;;;;;5048019;28;20049;-58
2022/07/07 07:52:40;;;;;;;5.60;1.27;;;18.60;99.90;;;;;;5048051;28;20110;-59
2022/07/07 07:55:07;;;;;;;3.17;1.20;;;18.60;99.90;;;;;;5046259;28;20087;-58
2022/07/07 07:57:34;;;;;;;2.47;0.98;;;18.70;99.90;;;;;;5039836;28;20044;-57
2022/07/07 08:00:02;;;;;;;6.00;1.50;;;18.70;99.90;;;;;;5050233;28;20045;-58
2022/07/07 08:02:29;;;;;;;7.63;1.15;;;18.70;99.90;;;;;;5047842;28;20131;-58
2022/07/07 08:04:56;;;;;;;5.68;1.38;;;18.70;99.90;;;;;;5047605;28;20381;-58
2022/07/07 08:07:23;;;;;;;4.57;1.70;;;18.70;99.90;;;;;;5047639;28;20131;-58
2022/07/07 08:09:49;;;;;;;4.85;1.77;;;18.70;99.90;;;;;;5047208;28;20126;-59
2022/07/07 08:12:16;;;;;;;6.18;1.52;;;18.70;99.90;;;;;;5055230;28;20091;-59
2022/07/07 08:14:47;;;;;;;9.35;1.60;;;18.70;99.90;;;;;;5047149;28;20386;-59
2022/07/07 08:17:14;;;;;;;3.38;1.40;;;18.70;99.90;;;;;;5045937;28;20044;-59
2022/07/07 08:19:41;;;;;;;6.70;1.20;;;18.80;99.90;;;;;;5047243;28;20507;-60
2022/07/07 08:22:08;;;;;;;5.30;1.38;;;18.80;99.90;;;;;;5047448;28;20266;-58
2022/07/07 08:24:35;;;;;;;6.35;1.45;;;18.90;99.90;;;;;;5046500;28;20094;-58
2022/07/07 08:27:03;;;;;;;3.03;1.00;;;18.90;99.90;;;;;;5047338;28;20044;-59
2022/07/07 08:29:29;;;;;;;5.68;1.30;;;18.90;99.90;;;;;;5046435;28;20140;-59
2022/07/07 08:31:56;;;;;;;7.20;1.23;;;18.90;99.90;;;;;;5055621;28;20458;-56
2022/07/07 08:34:23;;;;;;;4.63;1.00;;;18.90;99.90;;;;;;5045314;28;20045;-60
2022/07/07 08:36:52;;;;;;;3.20;1.40;;;18.90;99.90;;;;;;5045520;28;20081;-59
2022/07/07 08:39:18;;;;;;;5.13;1.10;;;18.90;99.90;;;;;;5043279;28;20247;-59
2022/07/07 08:41:45;;;;;;;4.70;1.17;;;19.00;99.90;;;;;;5045457;28;20081;-57
2022/07/07 08:44:12;;;;;;;6.15;1.02;;;19.10;99.90;;;;;;5046502;28;20045;-59
2022/07/07 08:46:40;;;;;;;3.72;0.82;;;19.20;99.90;;;;;;5046219;28;20048;-59
2022/07/07 08:49:09;;;;;;;3.20;1.05;;;19.30;99.90;;;;;;5045875;28;20075;-59
2022/07/07 08:51:41;;;;;;;4.35;0.90;;;19.40;99.90;;;;;;5047873;28;20083;-59
2022/07/07 08:54:11;;;;;;;5.18;1.35;;;19.40;99.90;;;;;;5047309;28;20072;-59
2022/07/07 08:56:41;;;;;;;3.80;0.90;;;19.50;99.90;;;;;;5047621;28;20076;-59
2022/07/07 08:59:08;;;;;;;5.53;1.30;;;19.60;99.90;;;;;;5046877;28;20063;-58
2022/07/07 09:01:36;;;;;;;6.00;1.15;;;19.70;99.90;;;;;;5047306;28;20085;-58
2022/07/07 09:04:03;;;;;;;4.43;0.80;;;19.80;99.90;;;;;;5047564;28;20079;-58
2022/07/07 09:06:30;;;;;;;3.00;0.90;;;19.90;99.90;;;;;;5047177;28;20076;-58
2022/07/07 09:08:57;;;;;;;5.90;1.10;;;19.90;99.30;;;;;;5046966;28;20550;-58
2022/07/07 09:11:31;;;;;;;1.75;1.00;;;19.90;99.70;;;;;;5047627;28;20122;-58
2022/07/07 09:14:18;;;;;;;9.50;1.25;;;19.90;99.30;;;;;;5047697;28;20135;-58
2022/07/07 09:16:45;;;;;;;5.35;1.20;;;20.00;98.70;;;;;;5060589;28;20099;-57
2022/07/07 09:19:19;;;;;;;3.70;1.15;;;20.00;99.00;;;;;;5047442;28;20041;-57
2022/07/07 09:21:46;;;;;;;3.38;1.05;;;20.00;98.50;;;;;;5044618;28;20052;-58
2022/07/07 09:24:13;;;;;;;4.95;1.00;;;20.10;98.80;;;;;;5046661;28;20067;-58
2022/07/07 09:26:47;;;;;;;3.63;1.20;;;20.10;98.70;;;;;;5046038;28;20084;-59
2022/07/07 09:29:20;;;;;;;5.18;1.00;;;20.20;97.80;;;;;;5046411;28;20064;-58
2022/07/07 09:31:55;;;;;;;3.58;0.85;;;20.20;98.40;;;;;;5047179;28;20088;-56
2022/07/07 09:34:24;;;;;;;2.67;0.70;;;20.30;97.90;;;;;;5047559;28;20132;-58
2022/07/07 09:39:46;;;;;;;3.38;1.10;;;20.00;98.10;;;;;;5046538;28;20093;-59
2022/07/07 09:42:33;;;;;;;3.80;1.20;;;20.00;98.00;;;;;;5045235;28;20500;-60
2022/07/07 09:45:02;;;;;;;1.88;0.70;;;20.00;98.20;;;;;;5047281;28;20045;-59
2022/07/07 09:47:30;;;;;;;3.70;1.13;;;19.90;98.00;;;;;;5047066;28;20045;-57
2022/07/07 09:50:12;;;;;;;2.00;1.05;;;20.00;98.00;;;;;;5036608;28;20041;-59
2022/07/07 09:52:41;;;;;;;7.05;2.08;;;20.00;97.60;;;;;;5057450;28;20076;-59
2022/07/07 09:55:09;;;;;;;4.45;1.05;;;20.00;97.50;;;;;;5047636;28;20124;-59
2022/07/07 09:57:37;;;;;;;2.92;1.25;;;20.00;97.50;;;;;;5046772;28;20131;-58
2022/07/07 10:00:05;;;;;;;3.42;1.25;;;20.00;97.50;;;;;;5047461;28;20045;-59
2022/07/07 10:02:32;;;;;;;4.82;1.10;;;20.00;97.30;;;;;;5046585;28;20049;-58
2022/07/07 10:05:00;;;;;;;2.03;0.80;;;20.00;97.50;;;;;;5045902;28;20548;-59
2022/07/07 10:07:29;;;;;;;2.08;1.20;;;20.00;97.40;;;;;;5047017;28;20091;-57
2022/07/07 10:10:06;;;;;;;3.28;0.80;;;20.20;97.30;;;;;;5045845;28;20049;-59
2022/07/07 10:12:33;;;;;;;2.47;0.95;;;20.20;96.70;;;;;;5054405;28;20045;-59
2022/07/07 10:15:04;;;;;;;6.45;0.80;;;20.30;96.70;;;;;;5050446;28;20068;-59
2022/07/07 10:17:31;;;;;;;2.10;0.80;;;20.40;96.90;;;;;;5050526;28;20076;-58
2022/07/07 10:19:58;;;;;;;1.65;1.00;;;20.30;96.20;;;;;;5051015;28;20049;-58
2022/07/07 10:22:28;;;;;;;3.72;1.08;;;20.30;96.40;;;;;;5041584;28;20095;-59
2022/07/07 10:24:55;;;;;;;4.22;1.25;;;20.30;96.50;;;;;;5049524;28;20045;-56
2022/07/07 10:27:23;;;;;;;2.13;0.98;;;20.40;96.30;;;;;;5050251;28;20472;-59
2022/07/07 10:29:54;;;;;;;7.93;1.52;;;20.30;96.10;;;;;;5050441;28;20080;-58
2022/07/07 10:32:32;;;;;;;3.25;0.73;;;20.40;96.00;;;;;;5050310;28;20041;-59
2022/07/07 10:35:11;;;;;;;1.92;0.73;;;20.60;96.00;;;;;;5049928;28;20048;-59
2022/07/07 10:37:43;;;;;;;7.28;1.13;;;20.60;95.60;;;;;;5048923;28;20108;-59
2022/07/07 10:40:26;;;;;;;5.55;1.13;;;20.70;95.60;;;;;;5049102;28;20060;-59
2022/07/07 10:43:14;;;;;;;2.72;0.90;;;20.70;94.90;;;;;;5050052;28;20111;-59
2022/07/07 10:45:47;;;;;;;1.42;1.27;;;20.70;94.60;;;;;;5049937;28;20144;-59
2022/07/07 10:48:49;;;;;;;2.65;0.82;;;20.70;94.70;;;;;;5048477;28;20123;-57
2022/07/07 10:51:23;;;;;;;1.25;0.70;;;20.70;93.70;;;;;;5049600;28;20503;-58
2022/07/07 10:54:06;;;;;;;5.20;0.70;;;20.70;94.60;;;;;;5049830;28;20079;-58
2022/07/07 10:56:51;;;;;;;4.43;1.52;;;20.60;93.30;;;;;;5049888;28;20048;-57
2022/07/07 10:59:20;;;;;;;3.30;0.80;;;20.50;94.10;;;;;;5049708;28;20446;-57
2022/07/07 11:02:02;;;;;;;1.40;0.82;;;20.60;94.60;;;;;;5064664;28;20058;-57
2022/07/07 11:04:41;;;;;;;2.40;0.70;;;20.70;93.80;;;;;;5049635;28;20408;-58
2022/07/07 11:07:18;;;;;;;2.63;0.70;;;20.70;93.90;;;;;;5049374;28;20095;-57
2022/07/07 11:09:55;;;;;;;2.60;1.05;;;20.70;94.10;;;;;;5049205;28;20063;-58
2022/07/07 11:12:35;;;;;;;2.80;0.82;;;20.70;93.80;;;;;;5046217;28;20149;-59
2022/07/07 11:15:15;;;;;;;4.18;0.68;;;20.70;93.60;;;;;;5049642;28;20102;-58
2022/07/07 11:17:42;;;;;;;2.65;0.90;;;20.80;93.70;;;;;;5047358;28;20081;-58
2022/07/07 11:20:14;;;;;;;2.70;0.70;;;20.70;93.80;;;;;;5047901;28;20117;-59
2022/07/07 11:23:04;;;;;;;2.63;0.95;;;20.70;93.60;;;;;;5046747;28;20049;-58
2022/07/07 11:25:32;;;;;;;3.03;1.23;;;20.80;93.40;;;;;;5048942;28;20080;-59
2022/07/07 11:27:58;;;;;;;5.80;0.70;;;20.70;93.90;;;;;;5049101;28;20507;-59
2022/07/07 11:30:26;;;;;;;2.72;0.85;;;20.70;93.90;;;;;;5048955;28;20083;-58
2022/07/07 11:32:56;;;;;;;2.05;0.57;;;20.60;93.70;;;;;;5047857;28;20076;-58
2022/07/07 11:35:23;;;;;;;0.98;0.60;;;20.70;93.40;;;;;;5049270;28;20052;-57
2022/07/07 11:37:50;;;;;;;3.78;1.08;;;20.70;93.70;;;;;;5047534;28;20052;-60
2022/07/07 11:40:17;;;;;;;2.63;0.70;;;20.70;93.70;;;;;;5048889;28;20049;-60
2022/07/07 11:42:45;;;;;;;8.85;1.20;;;20.80;93.80;;;;;;5048721;28;20048;-57
2022/07/07 11:45:23;;;;;;;1.90;1.02;;;20.70;93.50;;;;;;5039260;28;20388;-58
2022/07/07 11:47:50;;;;;;;1.98;1.17;;;20.70;93.40;;;;;;5047775;28;20098;-54
2022/07/07 11:50:17;;;;;;;3.28;0.70;;;20.70;93.80;;;;;;5047795;28;20080;-57
2022/07/07 11:53:01;;;;;;;4.18;1.65;;;20.60;93.90;;;;;;5048683;28;20049;-58
2022/07/07 11:55:28;;;;;;;7.43;1.23;;;20.70;93.40;;;;;;5048376;28;20053;-57
2022/07/07 11:58:02;;;;;;;3.15;0.73;;;20.90;93.70;;;;;;5048588;28;20087;-58
2022/07/07 12:00:31;;;;;;;3.95;1.33;;;21.00;93.20;;;;;;5048233;28;20091;-58
2022/07/07 12:03:01;;;;;;;2.33;0.90;;;21.10;93.20;;;;;;5047122;28;20067;-59
2022/07/07 12:05:29;;;;;;;0.60;0.50;;;21.30;93.00;;;;;;5048317;28;20135;-58
2022/07/07 12:08:03;;;;;;;1.98;1.20;;;21.30;92.40;;;;;;5048307;28;20504;-58
2022/07/07 12:10:58;;;;;;;3.08;0.90;;;21.30;92.20;;;;;;5048317;28;20051;-57
2022/07/07 12:13:25;;;;;;;4.50;1.10;;;21.30;92.20;;;;;;5042169;28;20154;-56
2022/07/07 12:15:54;;;;;;;4.28;0.85;;;21.40;92.80;;;;;;5046714;28;20037;-58
2022/07/07 12:18:32;;;;;;;3.88;1.20;;;21.40;92.60;;;;;;5047920;28;20510;-58
2022/07/07 12:21:21;;;;;;;2.95;1.25;;;21.50;91.90;;;;;;5048105;28;20128;-58
2022/07/07 12:23:50;;;;;;;7.07;1.00;;;21.60;91.50;;;;;;5048023;28;20098;-58
2022/07/07 12:26:20;;;;;;;2.50;1.08;;;21.60;92.10;;;;;;5046748;28;20037;-58
2022/07/07 12:28:47;;;;;;;3.22;0.77;;;21.60;91.90;;;;;;5048261;28;20041;-57
2022/07/07 12:31:18;;;;;;;5.15;1.05;;;21.60;92.10;;;;;;5047950;28;20163;-58
2022/07/07 12:33:46;;;;;;;4.07;0.82;;;21.60;91.70;;;;;;5047104;28;20055;-59
2022/07/07 12:36:15;;;;;;;4.03;1.30;;;21.60;92.30;;;;;;5047767;28;20045;-58
2022/07/07 12:38:46;;;;;;;2.92;1.20;;;21.70;92.20;;;;;;5035762;28;20086;-58
2022/07/07 12:41:22;;;;;;;2.28;1.08;;;22.00;91.60;;;;;;5047302;28;20186;-60
2022/07/07 12:43:49;;;;;;;1.33;0.90;;;22.10;91.80;;;;;;5036393;28;20045;-57
2022/07/07 12:46:16;;;;;;;3.35;1.10;;;22.30;91.40;;;;;;5047897;28;20073;-58
2022/07/07 12:48:48;;;;;;;2.35;1.25;;;22.60;91.10;;;;;;5047027;28;20041;-58
2022/07/07 12:51:15;;;;;;;4.65;1.10;;;22.70;90.70;;;;;;5047360;28;20045;-59
2022/07/07 12:53:43;;;;;;;3.15;0.82;;;22.80;90.50;;;;;;4695036;28;10000061;-59
2022/07/07 12:56:12;;;;;;;5.00;1.35;;;22.80;90.30;;;;;;5044833;28;20745;-59